»·PEaware :: N143VT KSBP-KSNA

N143VT :: KSBP-KSNA

FLIGHT INFORMATION

Flight Status: Arrived
Operator: Privately registered:
United States
More flights under this callsign
Pilot: Anonymous 16492 (16492)
Aircraft: SOCATA TBM-900
(TBM9)
More flights by this aircraft type
Origin: KSBP San Luis Co Regl
United States
Destination: KSNA John Wayne-Orange Co
United States
More flights between these airports :: More routes between these airports
Route: RZS VTU V208 SXC SLI
File this flight plan on PilotEdge
Remarks:
Altitude:
(Current/Filed)
9,000ft
Speed:
(Current/Filed)
330kts
Departed: 08-Nov-18 07:44 PM
Arrived: 08-Nov-18 08:41 PM
Distance/Time
Traveled:
166nm/0:57
Distance/Time
To Go:
Arrived

Flight Plot

Page will automatically refresh every two minutes.


Map Options




Map Legend


Flown Route
Filed Route
Departure Airport
Arrival Airport
Navaid (VOR, NDB)
Fix

Horizontal Profiles

Position Reports

Time Latitude Longitude Heading Altitude Ground
Speed
08-Nov-18 19:29 35.237862 -120.637998 266 214ft 0kts
08-Nov-18 19:30 35.237862 -120.637998 266 214ft 0kts
08-Nov-18 19:31 35.237862 -120.637998 266 214ft 0kts
08-Nov-18 19:32 35.237862 -120.637998 266 214ft 0kts
08-Nov-18 19:33 35.237862 -120.637998 266 214ft 0kts
08-Nov-18 19:34 35.237862 -120.637998 266 214ft 0kts
08-Nov-18 19:35 35.237862 -120.637998 266 214ft 0kts
08-Nov-18 19:36 35.237862 -120.637998 266 214ft 0kts
08-Nov-18 19:37 35.237862 -120.637998 266 214ft 0kts
08-Nov-18 19:38 35.237862 -120.637998 266 214ft 0kts
08-Nov-18 19:39 35.237862 -120.637998 266 214ft 0kts
08-Nov-18 19:40 35.237862 -120.637998 266 214ft 0kts
08-Nov-18 19:41 35.237862 -120.637998 266 214ft 0kts
08-Nov-18 19:42 35.237860 -120.638011 255 214ft 0kts
08-Nov-18 19:43 35.237130 -120.638435 142 214ft 9kts
08-Nov-18 19:44 35.234659 -120.634166 125 214ft 20kts
08-Nov-18 19:45 35.233352 -120.632202 198 214ft 0kts
08-Nov-18 19:46 35.233115 -120.632320 204 214ft 6kts
08-Nov-18 19:47 35.243129 -120.651655 303 474ft 154kts
08-Nov-18 19:48 35.268100 -120.699023 302 1714ft 194kts
08-Nov-18 19:49 35.295279 -120.751036 302 3669ft 179kts
08-Nov-18 19:50 35.285526 -120.793232 172 5347ft 185kts
08-Nov-18 19:51 35.250428 -120.755598 130 6818ft 187kts
08-Nov-18 19:52 35.219590 -120.714212 130 7989ft 199kts
08-Nov-18 19:53 35.182087 -120.663754 130 8416ft 231kts
08-Nov-18 19:54 35.143780 -120.612280 130 8988ft 244kts
08-Nov-18 19:55 35.104897 -120.560101 130 8985ft 258kts
08-Nov-18 19:56 35.062354 -120.503119 130 8981ft 259kts
08-Nov-18 19:57 35.018182 -120.444045 130 8981ft 259kts
08-Nov-18 19:58 34.974282 -120.385423 130 8982ft 261kts
08-Nov-18 19:59 34.934924 -120.332955 130 8983ft 263kts
08-Nov-18 20:00 34.895535 -120.280535 131 8981ft 265kts
08-Nov-18 20:01 34.854654 -120.226221 131 8982ft 266kts
08-Nov-18 20:02 34.810642 -120.167825 131 8986ft 265kts
08-Nov-18 20:03 34.763629 -120.105568 131 8988ft 265kts
08-Nov-18 20:04 34.715482 -120.041915 131 9026ft 264kts
08-Nov-18 20:05 34.669470 -119.981202 131 9025ft 264kts
08-Nov-18 20:06 34.624059 -119.921392 131 9016ft 265kts
08-Nov-18 20:07 34.578175 -119.861055 131 9007ft 265kts
08-Nov-18 20:08 34.532488 -119.801086 131 8997ft 265kts
08-Nov-18 20:09 34.491231 -119.737076 121 8991ft 264kts
08-Nov-18 20:10 34.453173 -119.667016 120 9000ft 264kts
08-Nov-18 20:11 34.413923 -119.594785 120 9000ft 264kts
08-Nov-18 20:12 34.375452 -119.524256 122 8998ft 264kts
08-Nov-18 20:13 34.323854 -119.464384 134 8999ft 266kts
08-Nov-18 20:14 34.271373 -119.405708 133 8999ft 265kts
08-Nov-18 20:15 34.220723 -119.349185 133 8999ft 265kts
08-Nov-18 20:16 34.174731 -119.297980 133 9001ft 265kts
08-Nov-18 20:17 34.128902 -119.247014 133 9003ft 265kts
08-Nov-18 20:18 34.092133 -119.206179 133 9005ft 265kts
08-Nov-18 20:19 34.046399 -119.155475 133 9007ft 266kts
08-Nov-18 20:20 33.998303 -119.102238 134 9010ft 266kts
08-Nov-18 20:21 33.949930 -119.048781 133 9009ft 266kts
08-Nov-18 20:22 33.900523 -118.994235 134 9007ft 266kts
08-Nov-18 20:23 33.854300 -118.943309 134 8997ft 265kts
08-Nov-18 20:24 33.805897 -118.890071 135 8992ft 264kts
08-Nov-18 20:25 33.756631 -118.835972 135 8986ft 263kts
08-Nov-18 20:26 33.703738 -118.778003 135 8995ft 261kts
08-Nov-18 20:27 33.655007 -118.724678 135 9010ft 260kts
08-Nov-18 20:28 33.603399 -118.668287 135 9023ft 259kts
08-Nov-18 20:29 33.563076 -118.607679 87 8910ft 257kts
08-Nov-18 20:30 33.570759 -118.530390 81 7457ft 217kts
08-Nov-18 20:31 33.577535 -118.467474 81 6996ft 169kts
08-Nov-18 20:32 33.585147 -118.400119 81 7023ft 237kts
08-Nov-18 20:33 33.593328 -118.331343 81 6993ft 219kts
08-Nov-18 20:34 33.597639 -118.262865 92 6781ft 218kts
08-Nov-18 20:35 33.596062 -118.212483 91 5586ft 180kts
08-Nov-18 20:36 33.593956 -118.154654 91 4436ft 191kts
08-Nov-18 20:37 33.596115 -118.096486 64 3966ft 167kts
08-Nov-18 20:38 33.613163 -118.047059 67 3979ft 159kts
08-Nov-18 20:39 33.626114 -118.003300 72 3553ft 138kts
08-Nov-18 20:40 33.634991 -117.955103 78 2642ft 166kts
08-Nov-18 20:41 33.638084 -117.907525 70 1878ft 109kts
08-Nov-18 20:42 33.659183 -117.879895 33 822ft 96kts
08-Nov-18 20:43 33.675275 -117.869085 28 59ft 46kts
08-Nov-18 20:44 33.677310 -117.866646 113 59ft 0kts
08-Nov-18 20:45 33.677310 -117.866646 113 59ft 0kts
08-Nov-18 20:46 33.677309 -117.866643 113 59ft 0kts
08-Nov-18 20:47 33.677309 -117.866643 113 59ft 0kts
08-Nov-18 20:48 33.677309 -117.866643 113 59ft 0kts
08-Nov-18 20:49 33.677309 -117.866643 113 59ft 0kts

Navigation Log

Ident Type
1. KSBP Airport
2. RZS Navaid
3. VTU Navaid
4. WEEZL Fix
5. SXC Navaid
6. SLI Navaid
7. KSNA Airport